Dawn Merchant — MYIL6 — position and weather

sailwx.info

Track history (hours):
 
Tides and Currents Weather Stations Pressure Air Temp Water Temp Dewpoint Dewpoint Depression Visibility Wind Speed Wind Dir Waves Ship Positions

Dawn Merchant

Operator: Norfolk Line

Last reported at 2019-Nov-04 00:59 UTC. Time now 2019-Nov-20 10:14 UTC.
Position S 41°16' E 174°47'.
Warning: this ship's position is 16 days out of date.

Length 180 m; draft 5.8 m.

Type: Passenger vessel. MMSI: 232197000.

Date/timePositionNaut miles runAvg speedWind from/ knotsBaromVisibWave heightAir tempDewpointWater temp
2019-Nov-04 00:59S 41°16' E 174°47'0 0.0
2019-Nov-03 23:59S 41°16' E 174°47'0 0.0
2019-Nov-03 21:29S 41°16' E 174°47'0 0.0
2019-Nov-03 20:56S 41°16' E 174°47'0 0.0
2019-Nov-03 16:59S 41°16' E 174°47'0 0.0
2019-Nov-03 14:59S 41°16' E 174°47'0 0.0
2019-Nov-03 14:29S 41°16' E 174°47'0 0.0
2019-Nov-03 13:29S 41°16' E 174°47'0 0.0
2019-Nov-03 09:58S 41°16' E 174°47'0 0.0
2019-Nov-03 07:58S 41°16' E 174°47'0 0.0
2019-Nov-03 06:28S 41°16' E 174°47'0 0.0
2019-Nov-03 05:58S 41°16' E 174°47'0 0.0
2019-Nov-03 01:28S 41°16' E 174°47'0 0.0
2019-Nov-02 21:58S 41°16' E 174°47'0 0.0
2019-Nov-02 21:28S 41°16' E 174°47'0 0.0
2019-Nov-02 20:28S 41°16' E 174°47'0 0.0
2019-Nov-02 19:28S 41°16' E 174°47'0 0.0
2019-Nov-02 18:58S 41°16' E 174°47'0 0.0
2019-Nov-02 18:28S 41°16' E 174°47'0 0.0
2019-Nov-02 17:58S 41°16' E 174°47'0 0.0
2019-Nov-02 17:28S 41°16' E 174°47'0 0.0
2019-Nov-02 10:00S 41°16' E 174°47'0 0.0
2019-Nov-02 09:00S 41°16' E 174°47'0 0.4
2019-Nov-02 08:30S 41°16' E 174°47'8 8.3
2019-Nov-02 07:30S 41°23' E 174°42'2315.5
2019-Nov-02 06:00S 41°15' E 174°14'1010.1
2019-Nov-02 04:59S 41°17' E 174°00'13 4.4
2019-Nov-02 02:00S 41°13' E 174°17'816.3
2019-Nov-02 01:30S 41°17' E 174°27'918.3
2019-Nov-02 01:00S 41°22' E 174°37'917.8
2019-Nov-02 00:30S 41°22' E 174°49'612.3
2019-Nov-02 00:01S 41°16' E 174°47'0 0.3
2019-Nov-01 23:30S 41°16' E 174°47'0 0.0
2019-Nov-01 23:00S 41°16' E 174°47'0 0.0
2019-Nov-01 22:30S 41°16' E 174°47'0 0.0
2019-Nov-01 22:00S 41°16' E 174°47'3 6.7
2019-Nov-01 21:30S 41°17' E 174°51'714.9
2019-Nov-01 21:00S 41°23' E 174°46'816.1
2019-Nov-01 20:30S 41°22' E 174°36'918.1
2019-Nov-01 20:01S 41°17' E 174°25'714.0
2019-Nov-01 19:30S 41°13' E 174°17'611.2
2019-Nov-01 19:01S 41°15' E 174°10'612.6
2019-Nov-01 18:31S 41°15' E 174°02'2 4.3
2019-Nov-01 18:00S 41°17' E 174°00'0 0.0
2019-Nov-01 17:30S 41°17' E 174°00'0 0.0
2019-Nov-01 17:00S 41°17' E 174°00'0 0.0
2019-Nov-01 16:30S 41°17' E 174°00'0 0.3
2019-Nov-01 16:01S 41°17' E 174°00'713.6
2019-Nov-01 15:31S 41°14' E 174°08'611.5
2019-Nov-01 15:01S 41°14' E 174°16'611.6
2019-Nov-01 14:30S 41°15' E 174°24'713.1
2019-Nov-01 14:00S 41°19' E 174°31'815.1
2019-Nov-01 13:30S 41°22' E 174°40'815.3
2019-Nov-01 13:00S 41°22' E 174°50'611.8
2019-Nov-01 12:31S 41°16' E 174°47'0 0.3
2019-Nov-01 11:58S 41°16' E 174°47'0 0.0
2019-Nov-01 11:28S 41°16' E 174°47'0 0.0
2019-Nov-01 10:58S 41°16' E 174°47'0 0.0
2019-Nov-01 10:28S 41°16' E 174°47'0 0.0
2019-Nov-01 09:55S 41°16' E 174°47'0 0.0
2019-Nov-01 09:28S 41°16' E 174°47'0 0.0
2019-Nov-01 08:58S 41°16' E 174°47'2 5.1
2019-Nov-01 08:31S 41°16' E 174°50'714.4
2019-Nov-01 08:00S 41°23' E 174°48'714.9
2019-Nov-01 07:30S 41°23' E 174°38'816.2
2019-Nov-01 07:00S 41°18' E 174°29'816.5
2019-Nov-01 06:30S 41°14' E 174°20'713.3
2019-Nov-01 06:00S 41°15' E 174°12'713.1
2019-Nov-01 05:31S 41°15' E 174°03'3 5.8
2019-Nov-01 05:01S 41°17' E 174°00'0 0.0
2019-Nov-01 04:31S 41°17' E 174°00'0 0.0
2019-Nov-01 04:29S 41°17' E 174°00'0 0.0
2019-Nov-01 04:01S 41°17' E 174°00'0 0.0
2019-Nov-01 03:31S 41°17' E 174°00'1 2.5
2019-Nov-01 03:01S 41°16' E 174°01'613.0
2019-Nov-01 02:31S 41°14' E 174°09'611.8
2019-Nov-01 02:01S 41°13' E 174°17'815.9
2019-Nov-01 01:30S 41°17' E 174°27'919.0
2019-Nov-01 01:00S 41°22' E 174°37'917.5
2019-Nov-01 00:30S 41°22' E 174°49'612.4
2019-Nov-01 00:01S 41°16' E 174°47'0 0.3
2019-Oct-31 23:30S 41°16' E 174°47'0 0.0
2019-Oct-31 23:00S 41°16' E 174°47'0 0.0
2019-Oct-31 22:30S 41°16' E 174°47'0 0.0
2019-Oct-31 22:00S 41°16' E 174°47'3 5.4
2019-Oct-31 21:30S 41°16' E 174°51'714.8
2019-Oct-31 21:00S 41°24' E 174°48'815.9
2019-Oct-31 20:30S 41°22' E 174°37'817.0
2019-Oct-31 20:00S 41°18' E 174°27'816.1
2019-Oct-31 19:31S 41°13' E 174°19'612.7
2019-Oct-31 19:01S 41°15' E 174°11'612.8
2019-Oct-31 18:30S 41°15' E 174°03'3 5.1
2019-Oct-31 17:59S 41°17' E 174°00'0 0.0
2019-Oct-31 17:29S 41°17' E 174°00'0 0.0
2019-Oct-31 16:59S 41°17' E 174°00'0 0.0
2019-Oct-31 16:29S 41°17' E 174°00'0 0.0
2019-Oct-31 15:59S 41°17' E 174°00'0 0.3
2019-Oct-31 15:30S 41°17' E 174°00'612.9
2019-Oct-31 15:00S 41°14' E 174°08'611.6
2019-Oct-31 14:31S 41°14' E 174°16'713.1
2019-Oct-31 14:00S 41°16' E 174°24'918.5
2019-Oct-31 13:30S 41°20' E 174°35'815.7
2019-Oct-31 13:00S 41°23' E 174°45'714.3
2019-Oct-31 12:30S 41°17' E 174°50'3 5.0
2019-Oct-31 11:59S 41°16' E 174°47'0 0.0
2019-Oct-31 11:29S 41°16' E 174°47'0 0.0
2019-Oct-31 10:59S 41°16' E 174°47'0 0.0
2019-Oct-31 10:29S 41°16' E 174°47'0 0.0
2019-Oct-31 09:59S 41°16' E 174°47'0 0.0
2019-Oct-31 09:29S 41°16' E 174°47'0 0.0
2019-Oct-31 08:59S 41°16' E 174°47'1 1.1
2019-Oct-31 08:30S 41°16' E 174°48'611.5
2019-Oct-31 08:01S 41°22' E 174°50'3812.6
2019-Oct-31 05:00S 41°17' E 174°00'0 0.0
2019-Oct-31 04:30S 41°17' E 174°00'35 7.1
2019-Oct-30 23:30S 41°16' E 174°47'0 0.0
2019-Oct-30 23:00S 41°16' E 174°47'0 0.0
2019-Oct-30 22:30S 41°16' E 174°47'0 0.0
2019-Oct-30 22:00S 41°16' E 174°47'35 1.9
2019-Oct-30 03:30S 41°17' E 174°01'611.1
2019-Oct-30 03:00S 41°14' E 174°07'612.0
2019-Oct-30 02:30S 41°14' E 174°15'510.9
2019-Oct-30 02:01S 41°14' E 174°22'612.3
2019-Oct-30 01:30S 41°18' E 174°29'815.1
2019-Oct-30 01:01S 41°22' E 174°37'816.2
2019-Oct-30 00:31S 41°22' E 174°48'612.1
2019-Oct-30 00:00S 41°16' E 174°48'1 1.3
2019-Oct-29 23:29S 41°16' E 174°47'0 0.0
2019-Oct-29 22:59S 41°16' E 174°47'0 0.0
2019-Oct-29 22:29S 41°16' E 174°47'0 0.0
2019-Oct-29 21:59S 41°16' E 174°47'2 3.9
2019-Oct-29 21:31S 41°16' E 174°50'714.1
2019-Oct-29 21:01S 41°23' E 174°49'816.3
2019-Oct-29 20:30S 41°23' E 174°39'816.2
2019-Oct-29 20:01S 41°19' E 174°29'918.5
2019-Oct-29 19:30S 41°13' E 174°19'1212.5
2019-Oct-29 18:30S 41°15' E 174°03'3 6.1
2019-Oct-29 18:01S 41°17' E 174°00'0 0.0
2019-Oct-29 17:31S 41°17' E 174°00'0 0.0
2019-Oct-29 17:00S 41°17' E 174°00'0 0.0
2019-Oct-29 16:31S 41°17' E 174°00'0 0.0
2019-Oct-29 16:01S 41°17' E 174°00'1 1.3
2019-Oct-29 15:31S 41°16' E 174°01'713.3
2019-Oct-29 15:00S 41°13' E 174°09'611.2
2019-Oct-29 14:30S 41°14' E 174°16'815.1
2019-Oct-29 14:00S 41°16' E 174°26'918.5
2019-Oct-29 13:30S 41°21' E 174°36'815.1
2019-Oct-29 13:01S 41°23' E 174°46'612.9
2019-Oct-29 12:30S 41°17' E 174°51'3 5.0
2019-Oct-29 11:58S 41°16' E 174°47'0 0.0
2019-Oct-29 11:28S 41°16' E 174°47'0 0.0
2019-Oct-29 10:58S 41°16' E 174°47'0 0.0
2019-Oct-29 10:28S 41°16' E 174°47'0 0.0
2019-Oct-29 09:58S 41°16' E 174°47'0 0.0
2019-Oct-29 09:28S 41°16' E 174°47'0 0.0
2019-Oct-29 08:58S 41°16' E 174°47'0 0.0
2019-Oct-29 08:28S 41°16' E 174°47'0 0.7
2019-Oct-29 08:00S 41°16' E 174°48'0 0.6
2019-Oct-29 07:31S 41°16' E 174°47'0 0.0
2019-Oct-29 07:00S 41°16' E 174°47'0 0.0
2019-Oct-29 06:30S 41°16' E 174°47'0 0.0
2019-Oct-29 06:00S 41°16' E 174°47'0 0.0
2019-Oct-29 05:30S 41°16' E 174°47'0 0.0
2019-Oct-29 05:00S 41°16' E 174°47'0 0.0
2019-Oct-29 04:30S 41°16' E 174°47'0 0.0
2019-Oct-29 04:00S 41°16' E 174°47'0 0.0
2019-Oct-29 03:30S 41°16' E 174°47'0 0.0
2019-Oct-29 03:00S 41°16' E 174°47'0 0.0
2019-Oct-29 02:00S 41°16' E 174°47'0 0.0
2019-Oct-29 00:00S 41°16' E 174°47'0 0.0
2019-Oct-28 22:30S 41°16' E 174°47'0 0.0
2019-Oct-28 22:00S 41°16' E 174°47'0 0.0
2019-Oct-28 21:30S 41°16' E 174°47'0 0.0
2019-Oct-28 21:00S 41°16' E 174°47'0 0.0
2019-Oct-28 20:27S 41°16' E 174°47'0 0.0
2019-Oct-28 20:00S 41°16' E 174°47'0 0.0
2019-Oct-28 19:30S 41°16' E 174°47'0 0.0
2019-Oct-28 19:00S 41°16' E 174°47'0 0.0
2019-Oct-28 18:30S 41°16' E 174°47'0 0.0
2019-Oct-28 18:00S 41°16' E 174°47'0 0.0
2019-Oct-28 17:30S 41°16' E 174°47'0 0.0
2019-Oct-28 17:00S 41°16' E 174°47'0 0.0
2019-Oct-28 16:30S 41°16' E 174°47'0 0.0
2019-Oct-28 16:00S 41°16' E 174°47'0 0.0
2019-Oct-28 15:30S 41°16' E 174°47'0 0.0
2019-Oct-28 15:00S 41°16' E 174°47'0 0.0
2019-Oct-28 14:30S 41°16' E 174°47'0 0.0
2019-Oct-28 14:00S 41°16' E 174°47'0 0.0
2019-Oct-28 13:30S 41°16' E 174°47'0 0.0
2019-Oct-28 12:57S 41°16' E 174°47'0 0.0
2019-Oct-28 12:30S 41°16' E 174°47'0 0.0
2019-Oct-28 12:00S 41°16' E 174°47'0 0.0
2019-Oct-28 11:30S 41°16' E 174°47'0 0.0
2019-Oct-28 11:00S 41°16' E 174°47'0 0.0
2019-Oct-28 10:30S 41°16' E 174°47'0 0.0
2019-Oct-28 10:00S 41°16' E 174°47'0 0.0
2019-Oct-28 09:30S 41°16' E 174°47'0 0.0
2019-Oct-28 09:00S 41°16' E 174°47'0 0.0
2019-Oct-28 08:30S 41°16' E 174°47'0 0.0
2019-Oct-28 08:00S 41°16' E 174°47'0 0.0
2019-Oct-28 07:27S 41°16' E 174°47'0 0.0
2019-Oct-28 07:00S 41°16' E 174°47'0 0.0
2019-Oct-28 06:30S 41°16' E 174°47'0 0.0
2019-Oct-28 06:00S 41°16' E 174°47'0 0.0
2019-Oct-28 05:30S 41°16' E 174°47'0 0.0
2019-Oct-28 04:57S 41°16' E 174°47'0 0.0
2019-Oct-28 04:30S 41°16' E 174°47'0 0.0
2019-Oct-28 04:00S 41°16' E 174°47'0 0.0
2019-Oct-28 03:30S 41°16' E 174°47'0 0.0
2019-Oct-28 03:00S 41°16' E 174°47'0 0.0
2019-Oct-28 02:00S 41°16' E 174°47'0 0.0
2019-Oct-28 01:30S 41°16' E 174°47'0 0.0
2019-Oct-28 01:00S 41°16' E 174°47'0 0.0
2019-Oct-28 00:30S 41°16' E 174°47'0 0.0
2019-Oct-28 00:00S 41°16' E 174°47'0 0.0
2019-Oct-27 23:30S 41°16' E 174°47'0 0.0
2019-Oct-27 23:00S 41°16' E 174°47'0 0.0
2019-Oct-27 22:30S 41°16' E 174°47'0 0.0
2019-Oct-27 22:00S 41°16' E 174°47'0 0.0
2019-Oct-27 21:30S 41°16' E 174°47'0 0.0
2019-Oct-27 21:00S 41°16' E 174°47'0 0.0
2019-Oct-27 20:30S 41°16' E 174°47'0 0.0
2019-Oct-27 20:00S 41°16' E 174°47'0 0.0
2019-Oct-27 19:30S 41°16' E 174°47'0 0.0
2019-Oct-27 19:00S 41°16' E 174°47'0 0.0
2019-Oct-27 18:30S 41°16' E 174°47'0 0.0
2019-Oct-27 18:00S 41°16' E 174°47'0 0.0
2019-Oct-27 17:30S 41°16' E 174°47'0 0.0
2019-Oct-27 17:00S 41°16' E 174°47'0 0.9
2019-Oct-27 16:30S 41°16' E 174°48'0 0.8
2019-Oct-27 16:00S 41°16' E 174°47'0 0.0
2019-Oct-27 15:30S 41°16' E 174°47'0 0.0
2019-Oct-27 15:00S 41°16' E 174°47'4 7.8
2019-Oct-27 14:30S 41°18' E 174°51'612.7
2019-Oct-27 14:00S 41°23' E 174°46'714.6
2019-Oct-27 13:30S 41°22' E 174°37'917.8
2019-Oct-27 13:00S 41°17' E 174°27'815.4
2019-Oct-27 12:31S 41°13' E 174°19'714.9
2019-Oct-27 12:00S 41°14' E 174°09'713.0
2019-Oct-27 11:30S 41°16' E 174°01'1 1.5
2019-Oct-27 11:00S 41°17' E 174°00'0 0.0
2019-Oct-27 10:30S 41°17' E 174°00'0 0.2
2019-Oct-27 10:00S 41°17' E 174°00'5 9.2
2019-Oct-27 09:30S 41°14' E 174°05'611.9
2019-Oct-27 09:01S 41°14' E 174°13'611.8
2019-Oct-27 08:31S 41°14' E 174°21'816.0
2019-Oct-27 08:01S 41°18' E 174°30'917.3
2019-Oct-27 07:31S 41°22' E 174°40'816.3
2019-Oct-27 07:00S 41°21' E 174°51'510.6
2019-Oct-27 06:30S 41°16' E 174°47'0 0.0
2019-Oct-27 06:00S 41°16' E 174°47'0 0.0
2019-Oct-27 05:30S 41°16' E 174°47'0 0.0
2019-Oct-27 05:00S 41°16' E 174°47'0 0.0
2019-Oct-27 04:30S 41°16' E 174°47'4 8.4
2019-Oct-27 04:00S 41°19' E 174°51'1912.9
2019-Oct-27 02:30S 41°17' E 174°26'714.5
2019-Oct-27 02:00S 41°13' E 174°17'612.4
2019-Oct-27 01:31S 41°14' E 174°09'713.9
2019-Oct-27 01:01S 41°17' E 174°01'0 0.6
2019-Oct-27 00:31S 41°17' E 174°00'0 0.0
2019-Oct-27 00:01S 41°17' E 174°00'0 0.0
2019-Oct-26 23:31S 41°17' E 174°00'2 4.5
2019-Oct-26 23:01S 41°15' E 174°02'612.0
2019-Oct-26 22:31S 41°15' E 174°10'613.0
2019-Oct-26 22:00S 41°13' E 174°18'714.3
2019-Oct-26 21:30S 41°16' E 174°26'815.9
2019-Oct-26 21:00S 41°21' E 174°35'714.1
2019-Oct-26 20:31S 41°23' E 174°44'714.2
2019-Oct-26 20:00S 41°18' E 174°51'4 6.9
2019-Oct-26 19:30S 41°16' E 174°47'0 0.0
2019-Oct-26 18:57S 41°16' E 174°47'0 0.0
2019-Oct-26 18:24S 41°16' E 174°47'1 2.3
2019-Oct-26 18:00S 41°16' E 174°48'2 3.4
2019-Oct-26 17:30S 41°15' E 174°50'0 0.8
2019-Oct-26 17:00S 41°15' E 174°50'0 0.1
2019-Oct-26 16:30S 41°16' E 174°50'0 0.1
2019-Oct-26 16:00S 41°16' E 174°50'0 0.1
2019-Oct-26 15:30S 41°16' E 174°50'0 0.1
2019-Oct-26 15:00S 41°16' E 174°50'0 0.0
2019-Oct-26 14:30S 41°16' E 174°50'0 0.1
2019-Oct-26 14:00S 41°16' E 174°50'0 0.7
2019-Oct-26 13:30S 41°16' E 174°49'2 2.8
2019-Oct-26 12:58S 41°16' E 174°47'0 0.0
2019-Oct-26 12:28S 41°16' E 174°47'0 0.0
2019-Oct-26 12:00S 41°16' E 174°47'3 6.4
2019-Oct-26 11:30S 41°17' E 174°51'714.5
2019-Oct-26 11:00S 41°24' E 174°47'918.3
2019-Oct-26 10:30S 41°21' E 174°35'816.7
2019-Oct-26 10:00S 41°17' E 174°26'714.8
2019-Oct-26 09:30S 41°13' E 174°18'714.2
2019-Oct-26 09:00S 41°14' E 174°08'713.2
2019-Oct-26 08:30S 41°17' E 174°00'0 0.1
2019-Oct-26 08:00S 41°17' E 174°00'0 0.0
2019-Oct-26 07:30S 41°17' E 174°00'0 0.2
2019-Oct-26 07:00S 41°17' E 174°00'510.1
2019-Oct-26 06:30S 41°14' E 174°06'713.2
2019-Oct-26 06:00S 41°14' E 174°15'713.6
2019-Oct-26 05:30S 41°15' E 174°24'917.1
2019-Oct-26 05:00S 41°20' E 174°33'918.7
2019-Oct-26 04:30S 41°23' E 174°45'713.9
2019-Oct-26 04:00S 41°17' E 174°51'3 5.5
2019-Oct-26 03:29S 41°16' E 174°47'0 0.0
2019-Oct-26 02:59S 41°16' E 174°47'0 0.0
2019-Oct-26 02:29S 41°16' E 174°47'0 0.0
2019-Oct-26 01:59S 41°16' E 174°47'0 0.0
2019-Oct-26 01:29S 41°16' E 174°47'0 0.0
2019-Oct-26 00:59S 41°16' E 174°47'0 0.0
2019-Oct-26 00:26S 41°16' E 174°47'0 0.0
2019-Oct-25 23:59S 41°16' E 174°47'0 0.6
2019-Oct-25 23:30S 41°16' E 174°47'510.1
2019-Oct-25 23:01S 41°20' E 174°51'713.7
2019-Oct-25 22:31S 41°23' E 174°43'918.5
2019-Oct-25 22:01S 41°20' E 174°31'816.5
2019-Oct-25 21:31S 41°15' E 174°22'713.8
2019-Oct-25 21:01S 41°14' E 174°13'713.9
2019-Oct-25 20:31S 41°15' E 174°04'4 6.6
2019-Oct-25 19:58S 41°17' E 174°00'0 0.0
2019-Oct-25 19:31S 41°17' E 174°00'0 0.0
2019-Oct-25 19:01S 41°17' E 174°00'0 0.3
2019-Oct-25 18:31S 41°17' E 174°00'713.1
2019-Oct-25 18:00S 41°14' E 174°08'612.7
2019-Oct-25 17:31S 41°13' E 174°16'917.8
2019-Oct-25 17:01S 41°17' E 174°28'1122.5
2019-Oct-25 16:30S 41°23' E 174°40'918.1
2019-Oct-25 16:00S 41°20' E 174°51'5 9.4
2019-Oct-25 15:30S 41°16' E 174°47'0 0.0
2019-Oct-25 14:58S 41°16' E 174°47'0 0.0
2019-Oct-25 14:28S 41°16' E 174°47'0 0.0
2019-Oct-25 13:58S 41°16' E 174°47'0 0.0
2019-Oct-25 13:30S 41°16' E 174°47'5 9.8
2019-Oct-25 13:00S 41°20' E 174°51'917.4
2019-Oct-25 12:30S 41°24' E 174°41'1121.4
2019-Oct-25 12:00S 41°18' E 174°29'1019.8
2019-Oct-25 11:30S 41°13' E 174°18'713.8
2019-Oct-25 11:00S 41°14' E 174°09'713.8
2019-Oct-25 10:30S 41°17' E 174°01'0 0.7
2019-Oct-25 09:59S 41°17' E 174°00'0 0.0
2019-Oct-25 09:29S 41°17' E 174°00'0 0.0
2019-Oct-25 09:01S 41°17' E 174°00'4 7.1
2019-Oct-25 08:31S 41°14' E 174°04'815.1
2019-Oct-25 08:00S 41°11' E 174°13'815.3
2019-Oct-25 07:31S 41°05' E 174°19'815.7
2019-Oct-25 07:01S 41°07' E 174°29'815.6
2019-Oct-25 06:31S 41°15' E 174°32'816.6
2019-Oct-25 06:00S 41°22' E 174°36'510.0
2019-Oct-25 05:31S 41°24' E 174°42'612.6
2019-Oct-25 05:01S 41°21' E 174°50'510.7
2019-Oct-25 04:31S 41°16' E 174°49'1 2.2
2019-Oct-25 04:00S 41°16' E 174°47'0 0.0
2019-Oct-25 03:30S 41°16' E 174°47'0 0.0
2019-Oct-25 02:57S 41°16' E 174°47'0 0.0
2019-Oct-25 02:30S 41°16' E 174°47'0 0.0
2019-Oct-25 02:00S 41°16' E 174°47'0 0.0
2019-Oct-25 01:30S 41°16' E 174°47'0 0.0
2019-Oct-25 01:00S 41°16' E 174°47'  
Track history (hours):
 
Tides and Currents Weather Stations Pressure Air Temp Water Temp Dewpoint Dewpoint Depression Visibility Wind Speed Wind Dir Waves Ship Positions

Dawn Merchant

Operator: Norfolk Line

Last reported at 2019-Nov-04 00:59 UTC. Time now 2019-Nov-20 10:14 UTC.
Position S 41°16' E 174°47'.
Warning: this ship's position is 16 days out of date.

Length 180 m; draft 5.8 m.

Type: Passenger vessel. MMSI: 232197000.

Date/timePositionNaut miles runAvg speedWind from/ knotsBaromVisibWave heightAir tempDewpointWater temp
2019-Nov-04 00:59S 41°16' E 174°47'0 0.0
2019-Nov-03 23:59S 41°16' E 174°47'0 0.0
2019-Nov-03 21:29S 41°16' E 174°47'0 0.0
2019-Nov-03 20:56S 41°16' E 174°47'0 0.0
2019-Nov-03 16:59S 41°16' E 174°47'0 0.0
2019-Nov-03 14:59S 41°16' E 174°47'0 0.0
2019-Nov-03 14:29S 41°16' E 174°47'0 0.0
2019-Nov-03 13:29S 41°16' E 174°47'0 0.0
2019-Nov-03 09:58S 41°16' E 174°47'0 0.0
2019-Nov-03 07:58S 41°16' E 174°47'0 0.0
2019-Nov-03 06:28S 41°16' E 174°47'0 0.0
2019-Nov-03 05:58S 41°16' E 174°47'0 0.0
2019-Nov-03 01:28S 41°16' E 174°47'0 0.0
2019-Nov-02 21:58S 41°16' E 174°47'0 0.0
2019-Nov-02 21:28S 41°16' E 174°47'0 0.0
2019-Nov-02 20:28S 41°16' E 174°47'0 0.0
2019-Nov-02 19:28S 41°16' E 174°47'0 0.0
2019-Nov-02 18:58S 41°16' E 174°47'0 0.0
2019-Nov-02 18:28S 41°16' E 174°47'0 0.0
2019-Nov-02 17:58S 41°16' E 174°47'0 0.0
2019-Nov-02 17:28S 41°16' E 174°47'0 0.0
2019-Nov-02 10:00S 41°16' E 174°47'0 0.0
2019-Nov-02 09:00S 41°16' E 174°47'0 0.4
2019-Nov-02 08:30S 41°16' E 174°47'8 8.3
2019-Nov-02 07:30S 41°23' E 174°42'2315.5
2019-Nov-02 06:00S 41°15' E 174°14'1010.1
2019-Nov-02 04:59S 41°17' E 174°00'13 4.4
2019-Nov-02 02:00S 41°13' E 174°17'816.3
2019-Nov-02 01:30S 41°17' E 174°27'918.3
2019-Nov-02 01:00S 41°22' E 174°37'917.8
2019-Nov-02 00:30S 41°22' E 174°49'612.3
2019-Nov-02 00:01S 41°16' E 174°47'0 0.3
2019-Nov-01 23:30S 41°16' E 174°47'0 0.0
2019-Nov-01 23:00S 41°16' E 174°47'0 0.0
2019-Nov-01 22:30S 41°16' E 174°47'0 0.0
2019-Nov-01 22:00S 41°16' E 174°47'3 6.7
2019-Nov-01 21:30S 41°17' E 174°51'714.9
2019-Nov-01 21:00S 41°23' E 174°46'816.1
2019-Nov-01 20:30S 41°22' E 174°36'918.1
2019-Nov-01 20:01S 41°17' E 174°25'714.0
2019-Nov-01 19:30S 41°13' E 174°17'611.2
2019-Nov-01 19:01S 41°15' E 174°10'612.6
2019-Nov-01 18:31S 41°15' E 174°02'2 4.3
2019-Nov-01 18:00S 41°17' E 174°00'0 0.0
2019-Nov-01 17:30S 41°17' E 174°00'0 0.0
2019-Nov-01 17:00S 41°17' E 174°00'0 0.0
2019-Nov-01 16:30S 41°17' E 174°00'0 0.3
2019-Nov-01 16:01S 41°17' E 174°00'713.6
2019-Nov-01 15:31S 41°14' E 174°08'611.5
2019-Nov-01 15:01S 41°14' E 174°16'611.6
2019-Nov-01 14:30S 41°15' E 174°24'713.1
2019-Nov-01 14:00S 41°19' E 174°31'815.1
2019-Nov-01 13:30S 41°22' E 174°40'815.3
2019-Nov-01 13:00S 41°22' E 174°50'611.8
2019-Nov-01 12:31S 41°16' E 174°47'0 0.3
2019-Nov-01 11:58S 41°16' E 174°47'0 0.0
2019-Nov-01 11:28S 41°16' E 174°47'0 0.0
2019-Nov-01 10:58S 41°16' E 174°47'0 0.0
2019-Nov-01 10:28S 41°16' E 174°47'0 0.0
2019-Nov-01 09:55S 41°16' E 174°47'0 0.0
2019-Nov-01 09:28S 41°16' E 174°47'0 0.0
2019-Nov-01 08:58S 41°16' E 174°47'2 5.1
2019-Nov-01 08:31S 41°16' E 174°50'714.4
2019-Nov-01 08:00S 41°23' E 174°48'714.9
2019-Nov-01 07:30S 41°23' E 174°38'816.2
2019-Nov-01 07:00S 41°18' E 174°29'816.5
2019-Nov-01 06:30S 41°14' E 174°20'713.3
2019-Nov-01 06:00S 41°15' E 174°12'713.1
2019-Nov-01 05:31S 41°15' E 174°03'3 5.8
2019-Nov-01 05:01S 41°17' E 174°00'0 0.0
2019-Nov-01 04:31S 41°17' E 174°00'0 0.0
2019-Nov-01 04:29S 41°17' E 174°00'0 0.0
2019-Nov-01 04:01S 41°17' E 174°00'0 0.0
2019-Nov-01 03:31S 41°17' E 174°00'1 2.5
2019-Nov-01 03:01S 41°16' E 174°01'613.0
2019-Nov-01 02:31S 41°14' E 174°09'611.8
2019-Nov-01 02:01S 41°13' E 174°17'815.9
2019-Nov-01 01:30S 41°17' E 174°27'919.0
2019-Nov-01 01:00S 41°22' E 174°37'917.5
2019-Nov-01 00:30S 41°22' E 174°49'612.4
2019-Nov-01 00:01S 41°16' E 174°47'0 0.3
2019-Oct-31 23:30S 41°16' E 174°47'0 0.0
2019-Oct-31 23:00S 41°16' E 174°47'0 0.0
2019-Oct-31 22:30S 41°16' E 174°47'0 0.0
2019-Oct-31 22:00S 41°16' E 174°47'3 5.4
2019-Oct-31 21:30S 41°16' E 174°51'714.8
2019-Oct-31 21:00S 41°24' E 174°48'815.9
2019-Oct-31 20:30S 41°22' E 174°37'817.0
2019-Oct-31 20:00S 41°18' E 174°27'816.1
2019-Oct-31 19:31S 41°13' E 174°19'612.7
2019-Oct-31 19:01S 41°15' E 174°11'612.8
2019-Oct-31 18:30S 41°15' E 174°03'3 5.1
2019-Oct-31 17:59S 41°17' E 174°00'0 0.0
2019-Oct-31 17:29S 41°17' E 174°00'0 0.0
2019-Oct-31 16:59S 41°17' E 174°00'0 0.0
2019-Oct-31 16:29S 41°17' E 174°00'0 0.0
2019-Oct-31 15:59S 41°17' E 174°00'0 0.3
2019-Oct-31 15:30S 41°17' E 174°00'612.9
2019-Oct-31 15:00S 41°14' E 174°08'611.6
2019-Oct-31 14:31S 41°14' E 174°16'713.1
2019-Oct-31 14:00S 41°16' E 174°24'918.5
2019-Oct-31 13:30S 41°20' E 174°35'815.7
2019-Oct-31 13:00S 41°23' E 174°45'714.3
2019-Oct-31 12:30S 41°17' E 174°50'3 5.0
2019-Oct-31 11:59S 41°16' E 174°47'0 0.0
2019-Oct-31 11:29S 41°16' E 174°47'0 0.0
2019-Oct-31 10:59S 41°16' E 174°47'0 0.0
2019-Oct-31 10:29S 41°16' E 174°47'0 0.0
2019-Oct-31 09:59S 41°16' E 174°47'0 0.0
2019-Oct-31 09:29S 41°16' E 174°47'0 0.0
2019-Oct-31 08:59S 41°16' E 174°47'1 1.1
2019-Oct-31 08:30S 41°16' E 174°48'611.5
2019-Oct-31 08:01S 41°22' E 174°50'3812.6
2019-Oct-31 05:00S 41°17' E 174°00'0 0.0
2019-Oct-31 04:30S 41°17' E 174°00'35 7.1
2019-Oct-30 23:30S 41°16' E 174°47'0 0.0
2019-Oct-30 23:00S 41°16' E 174°47'0 0.0
2019-Oct-30 22:30S 41°16' E 174°47'0 0.0
2019-Oct-30 22:00S 41°16' E 174°47'35 1.9
2019-Oct-30 03:30S 41°17' E 174°01'611.1
2019-Oct-30 03:00S 41°14' E 174°07'612.0
2019-Oct-30 02:30S 41°14' E 174°15'510.9
2019-Oct-30 02:01S 41°14' E 174°22'612.3
2019-Oct-30 01:30S 41°18' E 174°29'815.1
2019-Oct-30 01:01S 41°22' E 174°37'816.2
2019-Oct-30 00:31S 41°22' E 174°48'612.1
2019-Oct-30 00:00S 41°16' E 174°48'1 1.3
2019-Oct-29 23:29S 41°16' E 174°47'0 0.0
2019-Oct-29 22:59S 41°16' E 174°47'0 0.0
2019-Oct-29 22:29S 41°16' E 174°47'0 0.0
2019-Oct-29 21:59S 41°16' E 174°47'2 3.9
2019-Oct-29 21:31S 41°16' E 174°50'714.1
2019-Oct-29 21:01S 41°23' E 174°49'816.3
2019-Oct-29 20:30S 41°23' E 174°39'816.2
2019-Oct-29 20:01S 41°19' E 174°29'918.5
2019-Oct-29 19:30S 41°13' E 174°19'1212.5
2019-Oct-29 18:30S 41°15' E 174°03'3 6.1
2019-Oct-29 18:01S 41°17' E 174°00'0 0.0
2019-Oct-29 17:31S 41°17' E 174°00'0 0.0
2019-Oct-29 17:00S 41°17' E 174°00'0 0.0
2019-Oct-29 16:31S 41°17' E 174°00'0 0.0
2019-Oct-29 16:01S 41°17' E 174°00'1 1.3
2019-Oct-29 15:31S 41°16' E 174°01'713.3
2019-Oct-29 15:00S 41°13' E 174°09'611.2
2019-Oct-29 14:30S 41°14' E 174°16'815.1
2019-Oct-29 14:00S 41°16' E 174°26'918.5
2019-Oct-29 13:30S 41°21' E 174°36'815.1
2019-Oct-29 13:01S 41°23' E 174°46'612.9
2019-Oct-29 12:30S 41°17' E 174°51'3 5.0
2019-Oct-29 11:58S 41°16' E 174°47'0 0.0
2019-Oct-29 11:28S 41°16' E 174°47'0 0.0
2019-Oct-29 10:58S 41°16' E 174°47'0 0.0
2019-Oct-29 10:28S 41°16' E 174°47'0 0.0
2019-Oct-29 09:58S 41°16' E 174°47'0 0.0
2019-Oct-29 09:28S 41°16' E 174°47'0 0.0
2019-Oct-29 08:58S 41°16' E 174°47'0 0.0
2019-Oct-29 08:28S 41°16' E 174°47'0 0.7
2019-Oct-29 08:00S 41°16' E 174°48'0 0.6
2019-Oct-29 07:31S 41°16' E 174°47'0 0.0
2019-Oct-29 07:00S 41°16' E 174°47'0 0.0
2019-Oct-29 06:30S 41°16' E 174°47'0 0.0
2019-Oct-29 06:00S 41°16' E 174°47'0 0.0
2019-Oct-29 05:30S 41°16' E 174°47'0 0.0
2019-Oct-29 05:00S 41°16' E 174°47'0 0.0
2019-Oct-29 04:30S 41°16' E 174°47'0 0.0
2019-Oct-29 04:00S 41°16' E 174°47'0 0.0
2019-Oct-29 03:30S 41°16' E 174°47'0 0.0
2019-Oct-29 03:00S 41°16' E 174°47'0 0.0
2019-Oct-29 02:00S 41°16' E 174°47'0 0.0
2019-Oct-29 00:00S 41°16' E 174°47'0 0.0
2019-Oct-28 22:30S 41°16' E 174°47'0 0.0
2019-Oct-28 22:00S 41°16' E 174°47'0 0.0
2019-Oct-28 21:30S 41°16' E 174°47'0 0.0
2019-Oct-28 21:00S 41°16' E 174°47'0 0.0
2019-Oct-28 20:27S 41°16' E 174°47'0 0.0
2019-Oct-28 20:00S 41°16' E 174°47'0 0.0
2019-Oct-28 19:30S 41°16' E 174°47'0 0.0
2019-Oct-28 19:00S 41°16' E 174°47'0 0.0
2019-Oct-28 18:30S 41°16' E 174°47'0 0.0
2019-Oct-28 18:00S 41°16' E 174°47'0 0.0
2019-Oct-28 17:30S 41°16' E 174°47'0 0.0
2019-Oct-28 17:00S 41°16' E 174°47'0 0.0
2019-Oct-28 16:30S 41°16' E 174°47'0 0.0
2019-Oct-28 16:00S 41°16' E 174°47'0 0.0
2019-Oct-28 15:30S 41°16' E 174°47'0 0.0
2019-Oct-28 15:00S 41°16' E 174°47'0 0.0
2019-Oct-28 14:30S 41°16' E 174°47'0 0.0
2019-Oct-28 14:00S 41°16' E 174°47'0 0.0
2019-Oct-28 13:30S 41°16' E 174°47'0 0.0
2019-Oct-28 12:57S 41°16' E 174°47'0 0.0
2019-Oct-28 12:30S 41°16' E 174°47'0 0.0
2019-Oct-28 12:00S 41°16' E 174°47'0 0.0
2019-Oct-28 11:30S 41°16' E 174°47'0 0.0
2019-Oct-28 11:00S 41°16' E 174°47'0 0.0
2019-Oct-28 10:30S 41°16' E 174°47'0 0.0
2019-Oct-28 10:00S 41°16' E 174°47'0 0.0
2019-Oct-28 09:30S 41°16' E 174°47'0 0.0
2019-Oct-28 09:00S 41°16' E 174°47'0 0.0
2019-Oct-28 08:30S 41°16' E 174°47'0 0.0
2019-Oct-28 08:00S 41°16' E 174°47'0 0.0
2019-Oct-28 07:27S 41°16' E 174°47'0 0.0
2019-Oct-28 07:00S 41°16' E 174°47'0 0.0
2019-Oct-28 06:30S 41°16' E 174°47'0 0.0
2019-Oct-28 06:00S 41°16' E 174°47'0 0.0
2019-Oct-28 05:30S 41°16' E 174°47'0 0.0
2019-Oct-28 04:57S 41°16' E 174°47'0 0.0
2019-Oct-28 04:30S 41°16' E 174°47'0 0.0
2019-Oct-28 04:00S 41°16' E 174°47'0 0.0
2019-Oct-28 03:30S 41°16' E 174°47'0 0.0
2019-Oct-28 03:00S 41°16' E 174°47'0 0.0
2019-Oct-28 02:00S 41°16' E 174°47'0 0.0
2019-Oct-28 01:30S 41°16' E 174°47'0 0.0
2019-Oct-28 01:00S 41°16' E 174°47'0 0.0
2019-Oct-28 00:30S 41°16' E 174°47'0 0.0
2019-Oct-28 00:00S 41°16' E 174°47'0 0.0
2019-Oct-27 23:30S 41°16' E 174°47'0 0.0
2019-Oct-27 23:00S 41°16' E 174°47'0 0.0
2019-Oct-27 22:30S 41°16' E 174°47'0 0.0
2019-Oct-27 22:00S 41°16' E 174°47'0 0.0
2019-Oct-27 21:30S 41°16' E 174°47'0 0.0
2019-Oct-27 21:00S 41°16' E 174°47'0 0.0
2019-Oct-27 20:30S 41°16' E 174°47'0 0.0
2019-Oct-27 20:00S 41°16' E 174°47'0 0.0
2019-Oct-27 19:30S 41°16' E 174°47'0 0.0
2019-Oct-27 19:00S 41°16' E 174°47'0 0.0
2019-Oct-27 18:30S 41°16' E 174°47'0 0.0
2019-Oct-27 18:00S 41°16' E 174°47'0 0.0
2019-Oct-27 17:30S 41°16' E 174°47'0 0.0
2019-Oct-27 17:00S 41°16' E 174°47'0 0.9
2019-Oct-27 16:30S 41°16' E 174°48'0 0.8
2019-Oct-27 16:00S 41°16' E 174°47'0 0.0
2019-Oct-27 15:30S 41°16' E 174°47'0 0.0
2019-Oct-27 15:00S 41°16' E 174°47'4 7.8
2019-Oct-27 14:30S 41°18' E 174°51'612.7
2019-Oct-27 14:00S 41°23' E 174°46'714.6
2019-Oct-27 13:30S 41°22' E 174°37'917.8
2019-Oct-27 13:00S 41°17' E 174°27'815.4
2019-Oct-27 12:31S 41°13' E 174°19'714.9
2019-Oct-27 12:00S 41°14' E 174°09'713.0
2019-Oct-27 11:30S 41°16' E 174°01'1 1.5
2019-Oct-27 11:00S 41°17' E 174°00'0 0.0
2019-Oct-27 10:30S 41°17' E 174°00'0 0.2
2019-Oct-27 10:00S 41°17' E 174°00'5 9.2
2019-Oct-27 09:30S 41°14' E 174°05'611.9
2019-Oct-27 09:01S 41°14' E 174°13'611.8
2019-Oct-27 08:31S 41°14' E 174°21'816.0
2019-Oct-27 08:01S 41°18' E 174°30'917.3
2019-Oct-27 07:31S 41°22' E 174°40'816.3
2019-Oct-27 07:00S 41°21' E 174°51'510.6
2019-Oct-27 06:30S 41°16' E 174°47'0 0.0
2019-Oct-27 06:00S 41°16' E 174°47'0 0.0
2019-Oct-27 05:30S 41°16' E 174°47'0 0.0
2019-Oct-27 05:00S 41°16' E 174°47'0 0.0
2019-Oct-27 04:30S 41°16' E 174°47'4 8.4
2019-Oct-27 04:00S 41°19' E 174°51'1912.9
2019-Oct-27 02:30S 41°17' E 174°26'714.5
2019-Oct-27 02:00S 41°13' E 174°17'612.4
2019-Oct-27 01:31S 41°14' E 174°09'713.9
2019-Oct-27 01:01S 41°17' E 174°01'0 0.6
2019-Oct-27 00:31S 41°17' E 174°00'0 0.0
2019-Oct-27 00:01S 41°17' E 174°00'0 0.0
2019-Oct-26 23:31S 41°17' E 174°00'2 4.5
2019-Oct-26 23:01S 41°15' E 174°02'612.0
2019-Oct-26 22:31S 41°15' E 174°10'613.0
2019-Oct-26 22:00S 41°13' E 174°18'714.3
2019-Oct-26 21:30S 41°16' E 174°26'815.9
2019-Oct-26 21:00S 41°21' E 174°35'714.1
2019-Oct-26 20:31S 41°23' E 174°44'714.2
2019-Oct-26 20:00S 41°18' E 174°51'4 6.9
2019-Oct-26 19:30S 41°16' E 174°47'0 0.0
2019-Oct-26 18:57S 41°16' E 174°47'0 0.0
2019-Oct-26 18:24S 41°16' E 174°47'1 2.3
2019-Oct-26 18:00S 41°16' E 174°48'2 3.4
2019-Oct-26 17:30S 41°15' E 174°50'0 0.8
2019-Oct-26 17:00S 41°15' E 174°50'0 0.1
2019-Oct-26 16:30S 41°16' E 174°50'0 0.1
2019-Oct-26 16:00S 41°16' E 174°50'0 0.1
2019-Oct-26 15:30S 41°16' E 174°50'0 0.1
2019-Oct-26 15:00S 41°16' E 174°50'0 0.0
2019-Oct-26 14:30S 41°16' E 174°50'0 0.1
2019-Oct-26 14:00S 41°16' E 174°50'0 0.7
2019-Oct-26 13:30S 41°16' E 174°49'2 2.8
2019-Oct-26 12:58S 41°16' E 174°47'0 0.0
2019-Oct-26 12:28S 41°16' E 174°47'0 0.0
2019-Oct-26 12:00S 41°16' E 174°47'3 6.4
2019-Oct-26 11:30S 41°17' E 174°51'714.5
2019-Oct-26 11:00S 41°24' E 174°47'918.3
2019-Oct-26 10:30S 41°21' E 174°35'816.7
2019-Oct-26 10:00S 41°17' E 174°26'714.8
2019-Oct-26 09:30S 41°13' E 174°18'714.2
2019-Oct-26 09:00S 41°14' E 174°08'713.2
2019-Oct-26 08:30S 41°17' E 174°00'0 0.1
2019-Oct-26 08:00S 41°17' E 174°00'0 0.0
2019-Oct-26 07:30S 41°17' E 174°00'0 0.2
2019-Oct-26 07:00S 41°17' E 174°00'510.1
2019-Oct-26 06:30S 41°14' E 174°06'713.2
2019-Oct-26 06:00S 41°14' E 174°15'713.6
2019-Oct-26 05:30S 41°15' E 174°24'917.1
2019-Oct-26 05:00S 41°20' E 174°33'918.7
2019-Oct-26 04:30S 41°23' E 174°45'713.9
2019-Oct-26 04:00S 41°17' E 174°51'3 5.5
2019-Oct-26 03:29S 41°16' E 174°47'0 0.0
2019-Oct-26 02:59S 41°16' E 174°47'0 0.0
2019-Oct-26 02:29S 41°16' E 174°47'0 0.0
2019-Oct-26 01:59S 41°16' E 174°47'0 0.0
2019-Oct-26 01:29S 41°16' E 174°47'0 0.0
2019-Oct-26 00:59S 41°16' E 174°47'0 0.0
2019-Oct-26 00:26S 41°16' E 174°47'0 0.0
2019-Oct-25 23:59S 41°16' E 174°47'0 0.6
2019-Oct-25 23:30S 41°16' E 174°47'510.1
2019-Oct-25 23:01S 41°20' E 174°51'713.7
2019-Oct-25 22:31S 41°23' E 174°43'918.5
2019-Oct-25 22:01S 41°20' E 174°31'816.5
2019-Oct-25 21:31S 41°15' E 174°22'713.8
2019-Oct-25 21:01S 41°14' E 174°13'713.9
2019-Oct-25 20:31S 41°15' E 174°04'4 6.6
2019-Oct-25 19:58S 41°17' E 174°00'0 0.0
2019-Oct-25 19:31S 41°17' E 174°00'0 0.0
2019-Oct-25 19:01S 41°17' E 174°00'0 0.3
2019-Oct-25 18:31S 41°17' E 174°00'713.1
2019-Oct-25 18:00S 41°14' E 174°08'612.7
2019-Oct-25 17:31S 41°13' E 174°16'917.8
2019-Oct-25 17:01S 41°17' E 174°28'1122.5
2019-Oct-25 16:30S 41°23' E 174°40'918.1
2019-Oct-25 16:00S 41°20' E 174°51'5 9.4
2019-Oct-25 15:30S 41°16' E 174°47'0 0.0
2019-Oct-25 14:58S 41°16' E 174°47'0 0.0
2019-Oct-25 14:28S 41°16' E 174°47'0 0.0
2019-Oct-25 13:58S 41°16' E 174°47'0 0.0
2019-Oct-25 13:30S 41°16' E 174°47'5 9.8
2019-Oct-25 13:00S 41°20' E 174°51'917.4
2019-Oct-25 12:30S 41°24' E 174°41'1121.4
2019-Oct-25 12:00S 41°18' E 174°29'1019.8
2019-Oct-25 11:30S 41°13' E 174°18'713.8
2019-Oct-25 11:00S 41°14' E 174°09'713.8
2019-Oct-25 10:30S 41°17' E 174°01'0 0.7
2019-Oct-25 09:59S 41°17' E 174°00'0 0.0
2019-Oct-25 09:29S 41°17' E 174°00'0 0.0
2019-Oct-25 09:01S 41°17' E 174°00'4 7.1
2019-Oct-25 08:31S 41°14' E 174°04'815.1
2019-Oct-25 08:00S 41°11' E 174°13'815.3
2019-Oct-25 07:31S 41°05' E 174°19'815.7
2019-Oct-25 07:01S 41°07' E 174°29'815.6
2019-Oct-25 06:31S 41°15' E 174°32'816.6
2019-Oct-25 06:00S 41°22' E 174°36'510.0
2019-Oct-25 05:31S 41°24' E 174°42'612.6
2019-Oct-25 05:01S 41°21' E 174°50'510.7
2019-Oct-25 04:31S 41°16' E 174°49'1 2.2
2019-Oct-25 04:00S 41°16' E 174°47'0 0.0
2019-Oct-25 03:30S 41°16' E 174°47'0 0.0
2019-Oct-25 02:57S 41°16' E 174°47'0 0.0
2019-Oct-25 02:30S 41°16' E 174°47'0 0.0
2019-Oct-25 02:00S 41°16' E 174°47'0 0.0
2019-Oct-25 01:30S 41°16' E 174°47'0 0.0
2019-Oct-25 01:00S 41°16' E 174°47'  

Dump ship's entire track history